sensor_id;sensor_type;location;lat;lon;timestamp;pressure;altitude;pressure_sealevel;temperature;humidity
60970;BME280;46841;48.938;9.502;2023-12-20T00:00:36;98567.88;;;3.16;92.69
60970;BME280;46841;48.938;9.502;2023-12-20T00:03:03;98564.34;;;3.15;92.44
60970;BME280;46841;48.938;9.502;2023-12-20T00:05:29;98559.19;;;3.17;92.86
60970;BME280;46841;48.938;9.502;2023-12-20T00:07:57;98557.44;;;3.17;92.78
60970;BME280;46841;48.938;9.502;2023-12-20T00:10:22;98558.28;;;3.32;92.66
60970;BME280;46841;48.938;9.502;2023-12-20T00:12:48;98557.28;;;3.30;92.41
60970;BME280;46841;48.938;9.502;2023-12-20T00:15:13;98558.28;;;3.32;92.42
60970;BME280;46841;48.938;9.502;2023-12-20T00:17:39;98558.09;;;3.29;92.76
60970;BME280;46841;48.938;9.502;2023-12-20T00:20:04;98554.81;;;3.33;93.11
60970;BME280;46841;48.938;9.502;2023-12-20T00:22:31;98541.72;;;3.35;93.10
60970;BME280;46841;48.938;9.502;2023-12-20T00:25:00;98540.66;;;3.31;93.25
60970;BME280;46841;48.938;9.502;2023-12-20T00:27:25;98543.69;;;3.39;93.43
60970;BME280;46841;48.938;9.502;2023-12-20T00:29:50;98538.34;;;3.38;93.10
60970;BME280;46841;48.938;9.502;2023-12-20T00:32:16;98529.34;;;3.34;93.51
60970;BME280;46841;48.938;9.502;2023-12-20T00:34:42;98538.50;;;3.24;93.96
60970;BME280;46841;48.938;9.502;2023-12-20T00:37:08;98524.59;;;3.27;94.15
60970;BME280;46841;48.938;9.502;2023-12-20T00:39:33;98521.38;;;3.32;93.89
60970;BME280;46841;48.938;9.502;2023-12-20T00:41:59;98531.25;;;3.37;93.76
60970;BME280;46841;48.938;9.502;2023-12-20T00:44:24;98528.53;;;3.35;93.85
60970;BME280;46841;48.938;9.502;2023-12-20T00:46:49;98529.34;;;3.34;93.82
60970;BME280;46841;48.938;9.502;2023-12-20T00:49:15;98522.44;;;3.20;94.52
60970;BME280;46841;48.938;9.502;2023-12-20T00:51:40;98524.47;;;3.25;94.35
60970;BME280;46841;48.938;9.502;2023-12-20T00:54:06;98527.03;;;3.24;94.36
60970;BME280;46841;48.938;9.502;2023-12-20T00:56:31;98517.72;;;3.30;94.57
60970;BME280;46841;48.938;9.502;2023-12-20T00:58:57;98527.47;;;3.31;94.27
60970;BME280;46841;48.938;9.502;2023-12-20T01:01:22;98523.44;;;3.22;95.13
60970;BME280;46841;48.938;9.502;2023-12-20T01:03:47;98520.28;;;3.29;95.11
60970;BME280;46841;48.938;9.502;2023-12-20T01:06:13;98517.00;;;3.33;94.78
60970;BME280;46841;48.938;9.502;2023-12-20T01:08:39;98535.03;;;3.25;94.43
60970;BME280;46841;48.938;9.502;2023-12-20T01:11:05;98540.22;;;3.40;94.51
60970;BME280;46841;48.938;9.502;2023-12-20T01:13:31;98522.84;;;3.27;94.81
60970;BME280;46841;48.938;9.502;2023-12-20T01:15:56;98525.16;;;3.21;95.02
60970;BME280;46841;48.938;9.502;2023-12-20T01:18:21;98532.50;;;3.27;95.24
60970;BME280;46841;48.938;9.502;2023-12-20T01:20:47;98532.75;;;3.31;94.96
60970;BME280;46841;48.938;9.502;2023-12-20T01:23:12;98531.41;;;3.40;95.34
60970;BME280;46841;48.938;9.502;2023-12-20T01:25:38;98525.81;;;3.33;95.09
60970;BME280;46841;48.938;9.502;2023-12-20T01:28:04;98536.19;;;3.30;95.35
60970;BME280;46841;48.938;9.502;2023-12-20T01:30:29;98550.94;;;3.43;95.59
60970;BME280;46841;48.938;9.502;2023-12-20T01:32:55;98525.16;;;3.38;95.31
60970;BME280;46841;48.938;9.502;2023-12-20T01:35:20;98540.97;;;3.38;95.54
60970;BME280;46841;48.938;9.502;2023-12-20T01:37:46;98540.41;;;3.43;95.25
60970;BME280;46841;48.938;9.502;2023-12-20T01:40:11;98543.19;;;3.30;96.00
60970;BME280;46841;48.938;9.502;2023-12-20T01:42:36;98545.94;;;3.31;96.30
60970;BME280;46841;48.938;9.502;2023-12-20T01:45:02;98541.38;;;3.29;96.40
60970;BME280;46841;48.938;9.502;2023-12-20T01:47:28;98556.31;;;3.28;96.38
60970;BME280;46841;48.938;9.502;2023-12-20T01:49:53;98547.81;;;3.34;96.03
60970;BME280;46841;48.938;9.502;2023-12-20T01:52:20;98542.72;;;3.37;96.36
60970;BME280;46841;48.938;9.502;2023-12-20T01:54:47;98535.72;;;3.38;96.05
60970;BME280;46841;48.938;9.502;2023-12-20T01:57:13;98540.66;;;3.31;96.02
60970;BME280;46841;48.938;9.502;2023-12-20T01:59:39;98539.31;;;3.40;95.81
60970;BME280;46841;48.938;9.502;2023-12-20T02:02:05;98538.81;;;3.30;96.26
60970;BME280;46841;48.938;9.502;2023-12-20T02:04:32;98535.88;;;3.41;95.94
60970;BME280;46841;48.938;9.502;2023-12-20T02:06:58;98544.84;;;3.44;96.51
60970;BME280;46841;48.938;9.502;2023-12-20T02:09:24;98542.72;;;3.37;96.60
60970;BME280;46841;48.938;9.502;2023-12-20T02:11:50;98543.28;;;3.48;96.25
60970;BME280;46841;48.938;9.502;2023-12-20T02:14:15;98541.47;;;3.47;96.67
60970;BME280;46841;48.938;9.502;2023-12-20T02:16:41;98535.78;;;3.55;96.50
60970;BME280;46841;48.938;9.502;2023-12-20T02:19:13;98531.25;;;3.53;96.46
60970;BME280;46841;48.938;9.502;2023-12-20T02:21:38;98533.06;;;3.54;96.50
60970;BME280;46841;48.938;9.502;2023-12-20T02:24:04;98528.84;;;3.57;96.91
60970;BME280;46841;48.938;9.502;2023-12-20T02:26:31;98522.38;;;3.51;96.85
60970;BME280;46841;48.938;9.502;2023-12-20T02:28:58;98532.16;;;3.53;96.91
60970;BME280;46841;48.938;9.502;2023-12-20T02:31:23;98533.41;;;3.60;96.88
60970;BME280;46841;48.938;9.502;2023-12-20T02:33:49;98532.31;;;3.56;96.57
60970;BME280;46841;48.938;9.502;2023-12-20T02:36:14;98529.44;;;3.52;96.88
60970;BME280;46841;48.938;9.502;2023-12-20T02:38:40;98533.94;;;3.54;97.16
60970;BME280;46841;48.938;9.502;2023-12-20T02:41:05;98535.78;;;3.55;97.01
60970;BME280;46841;48.938;9.502;2023-12-20T02:43:31;98547.56;;;3.62;96.62
60970;BME280;46841;48.938;9.502;2023-12-20T02:45:56;98546.00;;;3.66;96.56
60970;BME280;46841;48.938;9.502;2023-12-20T02:48:22;98545.19;;;3.50;96.67
60970;BME280;46841;48.938;9.502;2023-12-20T02:50:48;98529.03;;;3.60;96.58
60970;BME280;46841;48.938;9.502;2023-12-20T02:53:14;98533.53;;;3.63;96.57
60970;BME280;46841;48.938;9.502;2023-12-20T02:55:40;98534.53;;;3.49;96.24
60970;BME280;46841;48.938;9.502;2023-12-20T02:58:05;98532.00;;;3.50;96.91
60970;BME280;46841;48.938;9.502;2023-12-20T03:00:31;98541.78;;;3.53;96.76
60970;BME280;46841;48.938;9.502;2023-12-20T03:02:59;98534.78;;;3.53;97.07
60970;BME280;46841;48.938;9.502;2023-12-20T03:05:25;98535.69;;;3.54;97.12
60970;BME280;46841;48.938;9.502;2023-12-20T03:07:50;98536.53;;;3.53;96.79
60970;BME280;46841;48.938;9.502;2023-12-20T03:10:15;98541.28;;;3.76;96.63
60970;BME280;46841;48.938;9.502;2023-12-20T03:12:41;98538.09;;;3.66;96.83
60970;BME280;46841;48.938;9.502;2023-12-20T03:15:07;98538.81;;;3.63;96.50
60970;BME280;46841;48.938;9.502;2023-12-20T03:17:32;98544.88;;;3.95;96.56
60970;BME280;46841;48.938;9.502;2023-12-20T03:19:57;98548.59;;;3.82;96.10
60970;BME280;46841;48.938;9.502;2023-12-20T03:22:23;98552.09;;;3.81;96.30
60970;BME280;46841;48.938;9.502;2023-12-20T03:24:48;98559.47;;;4.04;96.15
60970;BME280;46841;48.938;9.502;2023-12-20T03:27:14;98557.56;;;4.36;95.14
60970;BME280;46841;48.938;9.502;2023-12-20T03:29:39;98553.75;;;4.31;94.91
60970;BME280;46841;48.938;9.502;2023-12-20T03:32:05;98566.47;;;4.38;94.35
60970;BME280;46841;48.938;9.502;2023-12-20T03:34:30;98563.59;;;4.33;94.59
60970;BME280;46841;48.938;9.502;2023-12-20T03:36:56;98558.00;;;4.45;93.55
60970;BME280;46841;48.938;9.502;2023-12-20T03:39:21;98558.78;;;4.43;93.70
60970;BME280;46841;48.938;9.502;2023-12-20T03:41:47;98557.09;;;4.45;93.16
60970;BME280;46841;48.938;9.502;2023-12-20T03:44:12;98559.28;;;4.35;93.18
60970;BME280;46841;48.938;9.502;2023-12-20T03:46:38;98558.31;;;4.33;93.80
60970;BME280;46841;48.938;9.502;2023-12-20T03:49:03;98560.88;;;4.50;93.21
60970;BME280;46841;48.938;9.502;2023-12-20T03:51:28;98565.88;;;4.44;93.21
60970;BME280;46841;48.938;9.502;2023-12-20T03:53:54;98553.94;;;4.34;93.29
60970;BME280;46841;48.938;9.502;2023-12-20T03:56:19;98560.59;;;4.44;93.00
60970;BME280;46841;48.938;9.502;2023-12-20T03:58:45;98558.78;;;4.43;92.85
60970;BME280;46841;48.938;9.502;2023-12-20T04:01:10;98554.34;;;4.42;92.93
60970;BME280;46841;48.938;9.502;2023-12-20T04:03:38;98554.78;;;4.51;92.73
60970;BME280;46841;48.938;9.502;2023-12-20T04:06:04;98555.84;;;4.36;92.93
60970;BME280;46841;48.938;9.502;2023-12-20T04:08:29;98552.13;;;4.33;92.79
60970;BME280;46841;48.938;9.502;2023-12-20T04:10:54;98557.66;;;4.37;92.54
60970;BME280;46841;48.938;9.502;2023-12-20T04:13:20;98567.38;;;4.38;92.29
60970;BME280;46841;48.938;9.502;2023-12-20T04:15:45;98560.50;;;4.42;92.27
60970;BME280;46841;48.938;9.502;2023-12-20T04:18:11;98557.09;;;4.45;92.01
60970;BME280;46841;48.938;9.502;2023-12-20T04:20:36;98565.78;;;4.42;92.00
60970;BME280;46841;48.938;9.502;2023-12-20T04:23:01;98561.91;;;4.35;91.95
60970;BME280;46841;48.938;9.502;2023-12-20T04:25:27;98564.72;;;4.38;91.86
60970;BME280;46841;48.938;9.502;2023-12-20T04:27:52;98563.75;;;4.36;92.15
60970;BME280;46841;48.938;9.502;2023-12-20T04:30:18;98570.69;;;4.34;92.34
60970;BME280;46841;48.938;9.502;2023-12-20T04:32:43;98571.22;;;4.27;92.15
60970;BME280;46841;48.938;9.502;2023-12-20T04:35:09;98580.94;;;4.28;91.74
60970;BME280;46841;48.938;9.502;2023-12-20T04:37:34;98587.72;;;4.23;91.88
60970;BME280;46841;48.938;9.502;2023-12-20T04:40:00;98589.75;;;4.29;91.96
60970;BME280;46841;48.938;9.502;2023-12-20T04:42:34;98582.75;;;4.29;91.44
60970;BME280;46841;48.938;9.502;2023-12-20T04:45:15;98601.41;;;4.32;91.43
60970;BME280;46841;48.938;9.502;2023-12-20T04:47:42;98608.19;;;4.27;92.08
60970;BME280;46841;48.938;9.502;2023-12-20T04:50:08;98596.84;;;4.30;91.66
60970;BME280;46841;48.938;9.502;2023-12-20T04:52:35;98599.44;;;4.28;91.84
60970;BME280;46841;48.938;9.502;2023-12-20T04:55:01;98593.91;;;4.24;91.62
60970;BME280;46841;48.938;9.502;2023-12-20T04:57:35;98599.84;;;4.20;91.91
60970;BME280;46841;48.938;9.502;2023-12-20T05:00:00;98602.31;;;4.17;92.21
60970;BME280;46841;48.938;9.502;2023-12-20T05:02:30;98606.13;;;4.22;92.33
60970;BME280;46841;48.938;9.502;2023-12-20T05:04:55;98607.03;;;4.22;91.92
60970;BME280;46841;48.938;9.502;2023-12-20T05:07:26;98603.88;;;4.29;91.69
60970;BME280;46841;48.938;9.502;2023-12-20T05:09:58;98610.47;;;4.21;92.03
60970;BME280;46841;48.938;9.502;2023-12-20T05:12:31;98594.63;;;4.21;92.02
60970;BME280;46841;48.938;9.502;2023-12-20T05:15:23;98596.63;;;4.25;91.86
60970;BME280;46841;48.938;9.502;2023-12-20T05:17:48;98602.22;;;4.31;92.27
60970;BME280;46841;48.938;9.502;2023-12-20T05:20:16;98613.59;;;4.30;92.11
60970;BME280;46841;48.938;9.502;2023-12-20T05:22:42;98624.28;;;4.32;91.84
60970;BME280;46841;48.938;9.502;2023-12-20T05:25:07;98616.69;;;4.22;92.62
60970;BME280;46841;48.938;9.502;2023-12-20T05:27:33;98615.63;;;4.18;92.45
60970;BME280;46841;48.938;9.502;2023-12-20T05:29:58;98617.38;;;4.35;92.29
60970;BME280;46841;48.938;9.502;2023-12-20T05:32:24;98616.00;;;4.26;92.61
60970;BME280;46841;48.938;9.502;2023-12-20T05:34:49;98620.63;;;4.30;92.45
60970;BME280;46841;48.938;9.502;2023-12-20T05:37:14;98624.34;;;4.33;92.51
60970;BME280;46841;48.938;9.502;2023-12-20T05:39:40;98626.38;;;4.39;91.99
60970;BME280;46841;48.938;9.502;2023-12-20T05:42:05;98622.09;;;4.41;92.46
60970;BME280;46841;48.938;9.502;2023-12-20T05:44:31;98630.69;;;4.37;92.60
60970;BME280;46841;48.938;9.502;2023-12-20T05:46:56;98631.00;;;4.43;92.46
60970;BME280;46841;48.938;9.502;2023-12-20T05:49:21;98632.38;;;4.53;92.85
60970;BME280;46841;48.938;9.502;2023-12-20T05:51:47;98640.28;;;4.53;92.40
60970;BME280;46841;48.938;9.502;2023-12-20T05:54:12;98652.53;;;4.51;93.08
60970;BME280;46841;48.938;9.502;2023-12-20T05:56:38;98656.69;;;4.46;92.79
60970;BME280;46841;48.938;9.502;2023-12-20T05:59:04;98653.94;;;4.44;93.26
60970;BME280;46841;48.938;9.502;2023-12-20T06:01:29;98662.69;;;4.43;93.18
60970;BME280;46841;48.938;9.502;2023-12-20T06:03:54;98669.88;;;4.46;93.27
60970;BME280;46841;48.938;9.502;2023-12-20T06:06:22;98674.47;;;4.50;93.48
60970;BME280;46841;48.938;9.502;2023-12-20T06:08:50;98668.88;;;4.60;93.16
60970;BME280;46841;48.938;9.502;2023-12-20T06:11:27;98669.94;;;4.47;93.69
60970;BME280;46841;48.938;9.502;2023-12-20T06:13:52;98672.59;;;4.47;93.87
60970;BME280;46841;48.938;9.502;2023-12-20T06:16:18;98679.84;;;4.51;93.87
60970;BME280;46841;48.938;9.502;2023-12-20T06:18:44;98669.66;;;4.59;93.66
60970;BME280;46841;48.938;9.502;2023-12-20T06:21:10;98666.06;;;4.57;93.55
60970;BME280;46841;48.938;9.502;2023-12-20T06:23:38;98674.66;;;4.53;93.89
60970;BME280;46841;48.938;9.502;2023-12-20T06:26:04;98677.34;;;4.54;94.30
60970;BME280;46841;48.938;9.502;2023-12-20T06:28:29;98672.97;;;4.55;93.93
60970;BME280;46841;48.938;9.502;2023-12-20T06:30:57;98668.47;;;4.52;94.26
60970;BME280;46841;48.938;9.502;2023-12-20T06:33:26;98674.16;;;4.60;93.92
60970;BME280;46841;48.938;9.502;2023-12-20T06:35:52;98677.59;;;4.59;93.95
60970;BME280;46841;48.938;9.502;2023-12-20T06:38:18;98667.03;;;4.59;94.23
60970;BME280;46841;48.938;9.502;2023-12-20T06:40:44;98669.06;;;4.64;94.07
60970;BME280;46841;48.938;9.502;2023-12-20T06:43:10;98676.78;;;4.60;94.04
60970;BME280;46841;48.938;9.502;2023-12-20T06:45:35;98679.44;;;4.60;94.38
60970;BME280;46841;48.938;9.502;2023-12-20T06:48:00;98675.06;;;4.60;94.25
60970;BME280;46841;48.938;9.502;2023-12-20T06:50:26;98676.84;;;4.61;94.40
60970;BME280;46841;48.938;9.502;2023-12-20T06:52:51;98674.75;;;4.72;93.71
60970;BME280;46841;48.938;9.502;2023-12-20T06:55:20;98683.53;;;4.71;93.81
60970;BME280;46841;48.938;9.502;2023-12-20T06:57:45;98687.00;;;4.70;93.54
60970;BME280;46841;48.938;9.502;2023-12-20T07:00:11;98690.31;;;4.66;93.64
60970;BME280;46841;48.938;9.502;2023-12-20T07:02:37;98695.06;;;4.73;93.87
60970;BME280;46841;48.938;9.502;2023-12-20T07:05:02;98693.44;;;4.75;93.81
60970;BME280;46841;48.938;9.502;2023-12-20T07:07:28;98702.16;;;4.74;93.63
60970;BME280;46841;48.938;9.502;2023-12-20T07:10:02;98703.31;;;4.79;93.66
60970;BME280;46841;48.938;9.502;2023-12-20T07:12:30;98699.50;;;4.74;93.64
60970;BME280;46841;48.938;9.502;2023-12-20T07:15:01;98704.06;;;4.77;93.58
60970;BME280;46841;48.938;9.502;2023-12-20T07:17:27;98704.66;;;4.71;93.87
60970;BME280;46841;48.938;9.502;2023-12-20T07:19:53;98702.25;;;4.76;93.40
60970;BME280;46841;48.938;9.502;2023-12-20T07:22:30;98710.09;;;4.74;93.21
60970;BME280;46841;48.938;9.502;2023-12-20T07:25:02;98720.66;;;4.74;93.30
60970;BME280;46841;48.938;9.502;2023-12-20T07:27:36;98727.59;;;4.72;93.43
60970;BME280;46841;48.938;9.502;2023-12-20T07:30:10;98725.03;;;4.74;93.20
60970;BME280;46841;48.938;9.502;2023-12-20T07:32:36;98736.63;;;4.76;93.25
60970;BME280;46841;48.938;9.502;2023-12-20T07:35:01;98737.44;;;4.75;93.46
60970;BME280;46841;48.938;9.502;2023-12-20T07:37:28;98737.69;;;4.79;93.42
60970;BME280;46841;48.938;9.502;2023-12-20T07:39:53;98747.91;;;4.73;93.40
60970;BME280;46841;48.938;9.502;2023-12-20T07:42:19;98752.47;;;4.76;92.83
60970;BME280;46841;48.938;9.502;2023-12-20T07:44:44;98746.94;;;4.71;93.05
60970;BME280;46841;48.938;9.502;2023-12-20T07:47:10;98748.16;;;4.78;92.99
60970;BME280;46841;48.938;9.502;2023-12-20T07:49:37;98753.19;;;4.73;92.98
60970;BME280;46841;48.938;9.502;2023-12-20T07:52:02;98751.63;;;4.77;93.12
60970;BME280;46841;48.938;9.502;2023-12-20T07:54:28;98747.09;;;4.74;92.77
60970;BME280;46841;48.938;9.502;2023-12-20T07:56:53;98757.09;;;4.80;92.27
60970;BME280;46841;48.938;9.502;2023-12-20T07:59:19;98759.75;;;4.80;92.04
60970;BME280;46841;48.938;9.502;2023-12-20T08:01:45;98771.34;;;4.83;91.73
60970;BME280;46841;48.938;9.502;2023-12-20T08:04:10;98759.97;;;4.84;91.92
60970;BME280;46841;48.938;9.502;2023-12-20T08:06:36;98758.97;;;4.82;91.77
60970;BME280;46841;48.938;9.502;2023-12-20T08:09:01;98762.63;;;4.84;91.90
60970;BME280;46841;48.938;9.502;2023-12-20T08:11:29;98757.00;;;4.78;92.40
60970;BME280;46841;48.938;9.502;2023-12-20T08:13:55;98763.13;;;4.77;92.43
60970;BME280;46841;48.938;9.502;2023-12-20T08:16:20;98752.53;;;4.77;91.35
60970;BME280;46841;48.938;9.502;2023-12-20T08:18:47;98766.41;;;4.73;90.94
60970;BME280;46841;48.938;9.502;2023-12-20T08:21:12;98775.44;;;4.77;90.95
60970;BME280;46841;48.938;9.502;2023-12-20T08:23:38;98779.22;;;4.82;90.43
60970;BME280;46841;48.938;9.502;2023-12-20T08:26:05;98773.44;;;4.89;89.88
60970;BME280;46841;48.938;9.502;2023-12-20T08:28:30;98776.50;;;4.80;90.38
60970;BME280;46841;48.938;9.502;2023-12-20T08:30:56;98787.72;;;4.76;89.56
60970;BME280;46841;48.938;9.502;2023-12-20T08:33:22;98794.81;;;4.77;89.74
60970;BME280;46841;48.938;9.502;2023-12-20T08:35:47;98797.78;;;4.83;89.60
60970;BME280;46841;48.938;9.502;2023-12-20T08:38:13;98801.44;;;4.85;89.17
60970;BME280;46841;48.938;9.502;2023-12-20T08:40:38;98802.75;;;4.94;89.14
60970;BME280;46841;48.938;9.502;2023-12-20T08:43:06;98804.31;;;4.90;88.99
60970;BME280;46841;48.938;9.502;2023-12-20T08:45:32;98804.56;;;4.95;88.89
60970;BME280;46841;48.938;9.502;2023-12-20T08:48:02;98787.56;;;4.89;88.47
60970;BME280;46841;48.938;9.502;2023-12-20T08:50:33;98800.59;;;4.86;87.78
60970;BME280;46841;48.938;9.502;2023-12-20T08:52:59;98799.69;;;4.86;88.25
60970;BME280;46841;48.938;9.502;2023-12-20T08:55:30;98786.06;;;4.78;87.76
60970;BME280;46841;48.938;9.502;2023-12-20T08:57:56;98786.72;;;4.74;88.10
60970;BME280;46841;48.938;9.502;2023-12-20T09:00:22;98785.50;;;4.84;87.40
60970;BME280;46841;48.938;9.502;2023-12-20T09:02:51;98787.41;;;4.70;87.68
60970;BME280;46841;48.938;9.502;2023-12-20T09:05:16;98778.09;;;4.60;87.71
60970;BME280;46841;48.938;9.502;2023-12-20T09:07:41;98792.13;;;4.76;87.01
60970;BME280;46841;48.938;9.502;2023-12-20T09:10:07;98786.84;;;4.76;87.28
60970;BME280;46841;48.938;9.502;2023-12-20T09:12:32;98793.03;;;4.76;87.51
60970;BME280;46841;48.938;9.502;2023-12-20T09:14:58;98788.03;;;4.82;86.51
60970;BME280;46841;48.938;9.502;2023-12-20T09:17:23;98787.66;;;5.61;84.39
60970;BME280;46841;48.938;9.502;2023-12-20T09:19:49;98786.75;;;6.72;80.21
60970;BME280;46841;48.938;9.502;2023-12-20T09:22:15;98783.06;;;7.09;77.13
60970;BME280;46841;48.938;9.502;2023-12-20T09:24:40;98782.38;;;7.34;76.08
60970;BME280;46841;48.938;9.502;2023-12-20T09:27:06;98786.00;;;7.78;73.83
60970;BME280;46841;48.938;9.502;2023-12-20T09:29:31;98785.22;;;8.03;73.15
60970;BME280;46841;48.938;9.502;2023-12-20T09:31:57;98783.94;;;7.93;72.76
60970;BME280;46841;48.938;9.502;2023-12-20T09:34:23;98777.06;;;7.98;71.24
60970;BME280;46841;48.938;9.502;2023-12-20T09:36:48;98774.97;;;8.12;70.69
60970;BME280;46841;48.938;9.502;2023-12-20T09:39:14;98782.81;;;7.65;71.92
60970;BME280;46841;48.938;9.502;2023-12-20T09:41:44;98780.53;;;7.95;70.69
60970;BME280;46841;48.938;9.502;2023-12-20T09:44:15;98780.41;;;8.15;69.73
60970;BME280;46841;48.938;9.502;2023-12-20T09:46:49;98781.41;;;8.18;68.47
60970;BME280;46841;48.938;9.502;2023-12-20T09:49:17;98780.88;;;8.50;67.29
60970;BME280;46841;48.938;9.502;2023-12-20T09:51:44;98789.38;;;8.63;67.92
60970;BME280;46841;48.938;9.502;2023-12-20T09:54:15;98787.97;;;8.73;66.41
60970;BME280;46841;48.938;9.502;2023-12-20T09:56:41;98790.50;;;8.70;66.58
60970;BME280;46841;48.938;9.502;2023-12-20T09:59:07;98791.00;;;9.08;64.90
60970;BME280;46841;48.938;9.502;2023-12-20T10:01:34;98790.56;;;8.71;64.82
60970;BME280;46841;48.938;9.502;2023-12-20T10:04:00;98771.56;;;8.61;64.64
60970;BME280;46841;48.938;9.502;2023-12-20T10:06:25;98792.03;;;8.39;64.67
60970;BME280;46841;48.938;9.502;2023-12-20T10:08:51;98791.38;;;8.93;64.43
60970;BME280;46841;48.938;9.502;2023-12-20T10:11:18;98797.56;;;9.43;63.06
60970;BME280;46841;48.938;9.502;2023-12-20T10:13:47;98799.69;;;8.78;63.20
60970;BME280;46841;48.938;9.502;2023-12-20T10:16:13;98779.34;;;9.04;61.82
60970;BME280;46841;48.938;9.502;2023-12-20T10:18:41;98796.47;;;8.63;63.01
60970;BME280;46841;48.938;9.502;2023-12-20T10:21:06;98781.94;;;9.27;61.57
60970;BME280;46841;48.938;9.502;2023-12-20T10:23:35;98786.91;;;9.68;61.07
60970;BME280;46841;48.938;9.502;2023-12-20T10:26:01;98770.66;;;8.60;62.46
60970;BME280;46841;48.938;9.502;2023-12-20T10:28:26;98778.03;;;7.57;65.16
60970;BME280;46841;48.938;9.502;2023-12-20T10:30:58;98775.66;;;7.63;66.50
60970;BME280;46841;48.938;9.502;2023-12-20T10:33:31;98771.63;;;7.31;66.90
60970;BME280;46841;48.938;9.502;2023-12-20T10:35:59;98764.69;;;7.55;66.49
60970;BME280;46841;48.938;9.502;2023-12-20T10:38:24;98768.13;;;7.96;64.65
60970;BME280;46841;48.938;9.502;2023-12-20T10:40:54;98767.66;;;8.06;64.28
60970;BME280;46841;48.938;9.502;2023-12-20T10:43:22;98764.44;;;7.49;66.25
60970;BME280;46841;48.938;9.502;2023-12-20T10:45:48;98773.53;;;6.93;67.42
60970;BME280;46841;48.938;9.502;2023-12-20T10:48:14;98763.59;;;6.49;69.31
60970;BME280;46841;48.938;9.502;2023-12-20T10:50:41;98763.28;;;8.08;64.12
60970;BME280;46841;48.938;9.502;2023-12-20T10:53:07;98749.38;;;8.84;61.04
60970;BME280;46841;48.938;9.502;2023-12-20T10:55:33;98759.31;;;8.42;62.11
60970;BME280;46841;48.938;9.502;2023-12-20T10:58:07;98765.09;;;8.09;61.26
60970;BME280;46841;48.938;9.502;2023-12-20T11:00:37;98748.31;;;9.56;57.74
60970;BME280;46841;48.938;9.502;2023-12-20T11:03:05;98742.75;;;9.76;56.57
60970;BME280;46841;48.938;9.502;2023-12-20T11:06:00;98737.88;;;11.09;54.25
60970;BME280;46841;48.938;9.502;2023-12-20T11:08:50;98744.06;;;10.45;55.42
60970;BME280;46841;48.938;9.502;2023-12-20T11:14:27;98742.47;;;9.40;55.57
60970;BME280;46841;48.938;9.502;2023-12-20T11:17:08;98735.75;;;9.00;57.37
60970;BME280;46841;48.938;9.502;2023-12-20T11:20:04;98727.94;;;8.33;59.15
60970;BME280;46841;48.938;9.502;2023-12-20T11:22:32;98744.41;;;7.78;60.94
60970;BME280;46841;48.938;9.502;2023-12-20T11:27:47;98732.53;;;7.91;60.76
60970;BME280;46841;48.938;9.502;2023-12-20T11:31:01;98726.72;;;9.21;56.19
60970;BME280;46841;48.938;9.502;2023-12-20T11:33:29;98739.16;;;10.30;52.80
60970;BME280;46841;48.938;9.502;2023-12-20T11:35:56;98743.13;;;10.74;50.86
60970;BME280;46841;48.938;9.502;2023-12-20T11:38:25;98739.44;;;9.04;55.60
60970;BME280;46841;48.938;9.502;2023-12-20T11:40:54;98751.88;;;7.88;59.34
60970;BME280;46841;48.938;9.502;2023-12-20T11:43:38;98741.91;;;7.18;61.35
60970;BME280;46841;48.938;9.502;2023-12-20T11:46:08;98753.66;;;6.83;63.06
60970;BME280;46841;48.938;9.502;2023-12-20T11:48:40;98756.69;;;6.72;64.25
60970;BME280;46841;48.938;9.502;2023-12-20T11:51:14;98750.41;;;6.50;64.07
60970;BME280;46841;48.938;9.502;2023-12-20T11:53:40;98739.16;;;6.36;64.86
60970;BME280;46841;48.938;9.502;2023-12-20T11:56:11;98759.81;;;6.05;65.73
60970;BME280;46841;48.938;9.502;2023-12-20T11:58:46;98760.75;;;5.89;66.78
60970;BME280;46841;48.938;9.502;2023-12-20T12:01:19;98743.53;;;5.79;66.94
60970;BME280;46841;48.938;9.502;2023-12-20T12:03:46;98754.72;;;5.74;67.38
60970;BME280;46841;48.938;9.502;2023-12-20T12:06:12;98746.09;;;5.78;65.32
60970;BME280;46841;48.938;9.502;2023-12-20T12:08:38;98726.59;;;5.94;65.32
60970;BME280;46841;48.938;9.502;2023-12-20T12:11:03;98730.44;;;6.00;65.50
60970;BME280;46841;48.938;9.502;2023-12-20T12:13:29;98734.56;;;6.13;65.34
60970;BME280;46841;48.938;9.502;2023-12-20T12:15:55;98721.31;;;6.13;65.47
60970;BME280;46841;48.938;9.502;2023-12-20T12:18:20;98725.38;;;6.05;66.38
60970;BME280;46841;48.938;9.502;2023-12-20T12:20:46;98714.19;;;5.93;66.13
60970;BME280;46841;48.938;9.502;2023-12-20T12:23:11;98727.88;;;6.02;66.42
60970;BME280;46841;48.938;9.502;2023-12-20T12:25:37;98723.44;;;6.20;66.63
60970;BME280;46841;48.938;9.502;2023-12-20T12:28:03;98721.31;;;6.13;66.24
60970;BME280;46841;48.938;9.502;2023-12-20T12:30:28;98717.44;;;6.24;66.64
60970;BME280;46841;48.938;9.502;2023-12-20T12:32:56;98713.25;;;6.29;65.60
60970;BME280;46841;48.938;9.502;2023-12-20T12:35:21;98716.66;;;6.27;65.40
60970;BME280;46841;48.938;9.502;2023-12-20T12:37:47;98716.75;;;6.48;64.84
60970;BME280;46841;48.938;9.502;2023-12-20T12:40:14;98710.41;;;7.05;63.05
60970;BME280;46841;48.938;9.502;2023-12-20T12:42:40;98711.09;;;6.80;63.73
60970;BME280;46841;48.938;9.502;2023-12-20T12:45:07;98714.22;;;6.91;63.94
60970;BME280;46841;48.938;9.502;2023-12-20T12:47:33;98703.59;;;6.51;64.15
60970;BME280;46841;48.938;9.502;2023-12-20T12:49:59;98703.53;;;6.49;65.21
60970;BME280;46841;48.938;9.502;2023-12-20T12:52:24;98707.03;;;6.48;65.03
60970;BME280;46841;48.938;9.502;2023-12-20T12:54:50;98709.75;;;6.50;65.03
60970;BME280;46841;48.938;9.502;2023-12-20T12:57:15;98704.72;;;6.56;65.06
60970;BME280;46841;48.938;9.502;2023-12-20T12:59:43;98717.28;;;6.40;65.75
60970;BME280;46841;48.938;9.502;2023-12-20T13:02:11;98719.72;;;6.36;66.03
60970;BME280;46841;48.938;9.502;2023-12-20T13:04:36;98719.09;;;6.41;66.00
60970;BME280;46841;48.938;9.502;2023-12-20T13:07:01;98715.00;;;6.29;66.13
60970;BME280;46841;48.938;9.502;2023-12-20T13:09:27;98704.81;;;6.19;66.72
60970;BME280;46841;48.938;9.502;2023-12-20T13:11:53;98705.72;;;6.00;67.00
60970;BME280;46841;48.938;9.502;2023-12-20T13:14:18;98718.28;;;6.04;67.18